Manta — WDE3873 — position and weather

sailwx.info

Track history (hours):
 
Tides and Currents Weather Stations Pressure Air Temp Water Temp Dewpoint Dewpoint Depression Visibility Wind Speed Wind Dir Waves Ship Positions

Oceanographic research ship Manta (United States)

Owner: NOAA/ NOS/ ONMS/ Flower Garden Banks NMS, Galveston, TX. More information available from US FCC via Universal Licensing System.

Last reported at 2017-Apr-27 15:36 UTC. Time now 2017-Apr-27 16:54 UTC.
Position N 30°06' W 093°18'.

Length 11 m.

Type: Pleasure craft. MMSI: 338098471.

Date/timePositionNaut miles runAvg speedWind from/ knotsBaromVisibWave heightAir tempDewpointWater temp
2017-Apr-27 15:36N 30°06' W 093°18'0 0.6
2017-Apr-27 15:30N 30°06' W 093°18'3 0.2
2017-Apr-26 23:37N 30°09' W 093°20'319.8
2017-Apr-26 23:29N 30°06' W 093°18'2 0.5
2017-Apr-26 19:05N 30°04' W 093°20'224.2
2017-Apr-26 19:00N 30°06' W 093°18'0 0.0
2017-Apr-26 18:28N 30°06' W 093°18'0 0.0
2017-Apr-24 15:47N 30°06' W 093°18'3 8.9
2017-Apr-24 15:30N 30°04' W 093°20'0 0.1
2017-Apr-24 13:07N 30°04' W 093°20'326.1
2017-Apr-24 13:00N 30°06' W 093°19'  
2017-Apr-22 04:55N 30°06' W 093°18'3 0.2
2017-Apr-21 13:08N 30°03' W 093°20'326.8
2017-Apr-21 13:00N 30°06' W 093°18'0 0.0
2017-Apr-21 12:30N 30°06' W 093°18'0 0.0
2017-Apr-21 12:00N 30°06' W 093°18'0 0.0
2017-Apr-21 11:30N 30°06' W 093°18'0 0.0
2017-Apr-20 11:50N 30°06' W 093°18'2 0.3
2017-Apr-20 02:21N 30°04' W 093°20'  
Track history (hours):
 
Tides and Currents Weather Stations Pressure Air Temp Water Temp Dewpoint Dewpoint Depression Visibility Wind Speed Wind Dir Waves Ship Positions

Oceanographic research ship Manta (United States)

Owner: NOAA/ NOS/ ONMS/ Flower Garden Banks NMS, Galveston, TX. More information available from US FCC via Universal Licensing System.

Last reported at 2017-Apr-27 15:36 UTC. Time now 2017-Apr-27 16:54 UTC.
Position N 30°06' W 093°18'.

Length 11 m.

Type: Pleasure craft. MMSI: 338098471.

Date/timePositionNaut miles runAvg speedWind from/ knotsBaromVisibWave heightAir tempDewpointWater temp
2017-Apr-27 15:36N 30°06' W 093°18'0 0.6
2017-Apr-27 15:30N 30°06' W 093°18'3 0.2
2017-Apr-26 23:37N 30°09' W 093°20'319.8
2017-Apr-26 23:29N 30°06' W 093°18'2 0.5
2017-Apr-26 19:05N 30°04' W 093°20'224.2
2017-Apr-26 19:00N 30°06' W 093°18'0 0.0
2017-Apr-26 18:28N 30°06' W 093°18'0 0.0
2017-Apr-24 15:47N 30°06' W 093°18'3 8.9
2017-Apr-24 15:30N 30°04' W 093°20'0 0.1
2017-Apr-24 13:07N 30°04' W 093°20'326.1
2017-Apr-24 13:00N 30°06' W 093°19'  
2017-Apr-22 04:55N 30°06' W 093°18'3 0.2
2017-Apr-21 13:08N 30°03' W 093°20'326.8
2017-Apr-21 13:00N 30°06' W 093°18'0 0.0
2017-Apr-21 12:30N 30°06' W 093°18'0 0.0
2017-Apr-21 12:00N 30°06' W 093°18'0 0.0
2017-Apr-21 11:30N 30°06' W 093°18'0 0.0
2017-Apr-20 11:50N 30°06' W 093°18'2 0.3
2017-Apr-20 02:21N 30°04' W 093°20'  

Dump ship's entire track history